sensor_id;sensor_type;location;lat;lon;timestamp;P1;durP1;ratioP1;P2;durP2;ratioP2
38901;SDS011;24661;53.566;9.910;2023-04-15T00:00:38;5.50;;;3.70;;
38901;SDS011;24661;53.566;9.910;2023-04-15T00:03:04;8.07;;;3.93;;
38901;SDS011;24661;53.566;9.910;2023-04-15T00:05:30;6.03;;;3.47;;
38901;SDS011;24661;53.566;9.910;2023-04-15T00:07:59;6.33;;;3.70;;
38901;SDS011;24661;53.566;9.910;2023-04-15T00:10:26;4.80;;;3.70;;
38901;SDS011;24661;53.566;9.910;2023-04-15T00:12:52;4.30;;;3.47;;
38901;SDS011;24661;53.566;9.910;2023-04-15T00:15:18;4.73;;;3.40;;
38901;SDS011;24661;53.566;9.910;2023-04-15T00:17:44;4.70;;;3.47;;
38901;SDS011;24661;53.566;9.910;2023-04-15T00:20:10;6.80;;;4.33;;
38901;SDS011;24661;53.566;9.910;2023-04-15T00:22:35;4.53;;;3.50;;
38901;SDS011;24661;53.566;9.910;2023-04-15T00:25:01;4.87;;;3.23;;
38901;SDS011;24661;53.566;9.910;2023-04-15T00:27:27;5.93;;;3.70;;
38901;SDS011;24661;53.566;9.910;2023-04-15T00:29:53;5.97;;;3.60;;
38901;SDS011;24661;53.566;9.910;2023-04-15T00:32:19;6.37;;;4.07;;
38901;SDS011;24661;53.566;9.910;2023-04-15T00:34:44;6.07;;;4.33;;
38901;SDS011;24661;53.566;9.910;2023-04-15T00:37:10;5.07;;;3.90;;
38901;SDS011;24661;53.566;9.910;2023-04-15T00:39:36;5.00;;;4.10;;
38901;SDS011;24661;53.566;9.910;2023-04-15T00:42:02;5.10;;;3.80;;
38901;SDS011;24661;53.566;9.910;2023-04-15T00:44:28;6.33;;;4.33;;
38901;SDS011;24661;53.566;9.910;2023-04-15T00:46:55;6.07;;;4.13;;
38901;SDS011;24661;53.566;9.910;2023-04-15T00:49:21;5.13;;;3.57;;
38901;SDS011;24661;53.566;9.910;2023-04-15T00:51:47;5.73;;;4.27;;
38901;SDS011;24661;53.566;9.910;2023-04-15T00:54:13;6.27;;;4.20;;
38901;SDS011;24661;53.566;9.910;2023-04-15T00:56:39;5.93;;;4.50;;
38901;SDS011;24661;53.566;9.910;2023-04-15T00:59:05;5.30;;;4.20;;
38901;SDS011;24661;53.566;9.910;2023-04-15T01:01:32;6.37;;;4.77;;
38901;SDS011;24661;53.566;9.910;2023-04-15T01:04:00;7.73;;;4.90;;
38901;SDS011;24661;53.566;9.910;2023-04-15T01:06:26;8.07;;;5.37;;
38901;SDS011;24661;53.566;9.910;2023-04-15T01:08:52;6.63;;;4.47;;
38901;SDS011;24661;53.566;9.910;2023-04-15T01:11:18;7.13;;;5.00;;
38901;SDS011;24661;53.566;9.910;2023-04-15T01:13:44;6.27;;;4.97;;
38901;SDS011;24661;53.566;9.910;2023-04-15T01:16:11;7.63;;;5.13;;
38901;SDS011;24661;53.566;9.910;2023-04-15T01:18:37;6.47;;;5.13;;
38901;SDS011;24661;53.566;9.910;2023-04-15T01:21:04;7.13;;;5.33;;
38901;SDS011;24661;53.566;9.910;2023-04-15T01:23:31;6.80;;;5.13;;
38901;SDS011;24661;53.566;9.910;2023-04-15T01:25:58;8.63;;;5.47;;
38901;SDS011;24661;53.566;9.910;2023-04-15T01:28:24;8.90;;;6.20;;
38901;SDS011;24661;53.566;9.910;2023-04-15T01:30:50;10.30;;;5.53;;
38901;SDS011;24661;53.566;9.910;2023-04-15T01:33:29;7.63;;;5.53;;
38901;SDS011;24661;53.566;9.910;2023-04-15T01:35:55;8.47;;;5.67;;
38901;SDS011;24661;53.566;9.910;2023-04-15T01:38:21;7.87;;;5.83;;
38901;SDS011;24661;53.566;9.910;2023-04-15T01:40:46;8.07;;;6.00;;
38901;SDS011;24661;53.566;9.910;2023-04-15T01:43:12;10.23;;;6.73;;
38901;SDS011;24661;53.566;9.910;2023-04-15T01:45:39;9.73;;;6.53;;
38901;SDS011;24661;53.566;9.910;2023-04-15T01:48:05;9.37;;;6.90;;
38901;SDS011;24661;53.566;9.910;2023-04-15T01:50:31;9.23;;;6.20;;
38901;SDS011;24661;53.566;9.910;2023-04-15T01:52:57;9.90;;;7.13;;
38901;SDS011;24661;53.566;9.910;2023-04-15T01:55:22;8.77;;;6.83;;
38901;SDS011;24661;53.566;9.910;2023-04-15T01:57:48;8.57;;;6.50;;
38901;SDS011;24661;53.566;9.910;2023-04-15T02:00:13;8.83;;;6.47;;
38901;SDS011;24661;53.566;9.910;2023-04-15T02:02:39;9.00;;;6.73;;
38901;SDS011;24661;53.566;9.910;2023-04-15T02:05:05;9.50;;;7.67;;
38901;SDS011;24661;53.566;9.910;2023-04-15T02:07:31;12.07;;;7.80;;
38901;SDS011;24661;53.566;9.910;2023-04-15T02:09:56;9.40;;;6.63;;
38901;SDS011;24661;53.566;9.910;2023-04-15T02:12:22;10.23;;;6.80;;
38901;SDS011;24661;53.566;9.910;2023-04-15T02:14:48;8.93;;;6.47;;
38901;SDS011;24661;53.566;9.910;2023-04-15T02:17:13;9.37;;;6.40;;
38901;SDS011;24661;53.566;9.910;2023-04-15T02:19:39;12.30;;;8.17;;
38901;SDS011;24661;53.566;9.910;2023-04-15T02:22:05;9.70;;;7.53;;
38901;SDS011;24661;53.566;9.910;2023-04-15T02:24:31;10.97;;;7.63;;
38901;SDS011;24661;53.566;9.910;2023-04-15T02:26:57;11.10;;;6.70;;
38901;SDS011;24661;53.566;9.910;2023-04-15T02:29:23;10.27;;;7.17;;
38901;SDS011;24661;53.566;9.910;2023-04-15T02:31:48;13.23;;;7.87;;
38901;SDS011;24661;53.566;9.910;2023-04-15T02:34:14;11.93;;;7.73;;
38901;SDS011;24661;53.566;9.910;2023-04-15T02:36:40;10.40;;;7.67;;
38901;SDS011;24661;53.566;9.910;2023-04-15T02:39:06;11.33;;;7.63;;
38901;SDS011;24661;53.566;9.910;2023-04-15T02:41:31;9.57;;;6.83;;
38901;SDS011;24661;53.566;9.910;2023-04-15T02:43:57;11.67;;;8.00;;
38901;SDS011;24661;53.566;9.910;2023-04-15T02:46:23;14.83;;;7.63;;
38901;SDS011;24661;53.566;9.910;2023-04-15T02:48:49;11.90;;;7.60;;
38901;SDS011;24661;53.566;9.910;2023-04-15T02:51:17;10.37;;;7.60;;
38901;SDS011;24661;53.566;9.910;2023-04-15T02:53:44;10.40;;;7.30;;
38901;SDS011;24661;53.566;9.910;2023-04-15T02:56:10;11.63;;;7.30;;
38901;SDS011;24661;53.566;9.910;2023-04-15T02:58:36;10.83;;;7.43;;
38901;SDS011;24661;53.566;9.910;2023-04-15T03:01:02;9.83;;;6.97;;
38901;SDS011;24661;53.566;9.910;2023-04-15T03:03:27;12.57;;;7.63;;
38901;SDS011;24661;53.566;9.910;2023-04-15T03:05:53;10.03;;;6.97;;
38901;SDS011;24661;53.566;9.910;2023-04-15T03:08:18;12.77;;;7.70;;
38901;SDS011;24661;53.566;9.910;2023-04-15T03:10:47;10.23;;;7.33;;
38901;SDS011;24661;53.566;9.910;2023-04-15T03:13:13;12.03;;;7.73;;
38901;SDS011;24661;53.566;9.910;2023-04-15T03:15:38;13.40;;;7.43;;
38901;SDS011;24661;53.566;9.910;2023-04-15T03:18:04;12.70;;;7.20;;
38901;SDS011;24661;53.566;9.910;2023-04-15T03:20:29;12.10;;;7.47;;
38901;SDS011;24661;53.566;9.910;2023-04-15T03:22:55;11.53;;;7.70;;
38901;SDS011;24661;53.566;9.910;2023-04-15T03:25:21;12.70;;;8.40;;
38901;SDS011;24661;53.566;9.910;2023-04-15T03:27:46;13.47;;;9.30;;
38901;SDS011;24661;53.566;9.910;2023-04-15T03:30:12;14.13;;;9.50;;
38901;SDS011;24661;53.566;9.910;2023-04-15T03:32:37;16.03;;;9.00;;
38901;SDS011;24661;53.566;9.910;2023-04-15T03:35:03;14.60;;;8.73;;
38901;SDS011;24661;53.566;9.910;2023-04-15T03:37:30;12.63;;;8.53;;
38901;SDS011;24661;53.566;9.910;2023-04-15T03:39:55;15.43;;;9.03;;
38901;SDS011;24661;53.566;9.910;2023-04-15T03:42:21;14.73;;;8.70;;
38901;SDS011;24661;53.566;9.910;2023-04-15T03:44:47;14.97;;;8.57;;
38901;SDS011;24661;53.566;9.910;2023-04-15T03:47:12;15.27;;;9.27;;
38901;SDS011;24661;53.566;9.910;2023-04-15T03:49:38;16.27;;;9.87;;
38901;SDS011;24661;53.566;9.910;2023-04-15T03:52:04;15.10;;;9.63;;
38901;SDS011;24661;53.566;9.910;2023-04-15T03:54:30;23.60;;;11.27;;
38901;SDS011;24661;53.566;9.910;2023-04-15T03:56:55;18.17;;;11.27;;
38901;SDS011;24661;53.566;9.910;2023-04-15T03:59:21;17.90;;;11.30;;
38901;SDS011;24661;53.566;9.910;2023-04-15T04:01:47;17.33;;;10.23;;
38901;SDS011;24661;53.566;9.910;2023-04-15T04:04:13;21.53;;;11.37;;
38901;SDS011;24661;53.566;9.910;2023-04-15T04:06:38;19.77;;;11.20;;
38901;SDS011;24661;53.566;9.910;2023-04-15T04:09:04;17.77;;;10.67;;
38901;SDS011;24661;53.566;9.910;2023-04-15T04:11:30;15.97;;;10.27;;
38901;SDS011;24661;53.566;9.910;2023-04-15T04:13:55;21.10;;;11.37;;
38901;SDS011;24661;53.566;9.910;2023-04-15T04:16:21;23.57;;;13.50;;
38901;SDS011;24661;53.566;9.910;2023-04-15T04:18:46;19.90;;;10.83;;
38901;SDS011;24661;53.566;9.910;2023-04-15T04:21:12;19.53;;;11.70;;
38901;SDS011;24661;53.566;9.910;2023-04-15T04:23:37;23.87;;;11.77;;
38901;SDS011;24661;53.566;9.910;2023-04-15T04:26:03;20.90;;;12.27;;
38901;SDS011;24661;53.566;9.910;2023-04-15T04:28:29;27.40;;;13.63;;
38901;SDS011;24661;53.566;9.910;2023-04-15T04:30:54;22.87;;;12.13;;
38901;SDS011;24661;53.566;9.910;2023-04-15T04:33:20;19.13;;;12.23;;
38901;SDS011;24661;53.566;9.910;2023-04-15T04:35:46;22.00;;;12.53;;
38901;SDS011;24661;53.566;9.910;2023-04-15T04:38:11;20.13;;;11.70;;
38901;SDS011;24661;53.566;9.910;2023-04-15T04:40:37;20.57;;;11.73;;
38901;SDS011;24661;53.566;9.910;2023-04-15T04:43:02;25.57;;;13.73;;
38901;SDS011;24661;53.566;9.910;2023-04-15T04:45:29;26.93;;;12.90;;
38901;SDS011;24661;53.566;9.910;2023-04-15T04:47:54;29.70;;;14.37;;
38901;SDS011;24661;53.566;9.910;2023-04-15T04:50:20;25.27;;;14.73;;
38901;SDS011;24661;53.566;9.910;2023-04-15T04:52:45;26.93;;;14.43;;
38901;SDS011;24661;53.566;9.910;2023-04-15T04:55:11;30.37;;;15.17;;
38901;SDS011;24661;53.566;9.910;2023-04-15T04:57:37;28.63;;;16.13;;
38901;SDS011;24661;53.566;9.910;2023-04-15T05:00:04;31.70;;;14.87;;
38901;SDS011;24661;53.566;9.910;2023-04-15T05:02:32;29.50;;;15.77;;
38901;SDS011;24661;53.566;9.910;2023-04-15T05:04:57;32.83;;;16.73;;
38901;SDS011;24661;53.566;9.910;2023-04-15T05:07:23;34.53;;;16.73;;
38901;SDS011;24661;53.566;9.910;2023-04-15T05:09:49;33.83;;;16.03;;
38901;SDS011;24661;53.566;9.910;2023-04-15T05:12:14;32.53;;;15.70;;
38901;SDS011;24661;53.566;9.910;2023-04-15T05:14:40;34.33;;;17.70;;
38901;SDS011;24661;53.566;9.910;2023-04-15T05:17:06;34.47;;;16.17;;
38901;SDS011;24661;53.566;9.910;2023-04-15T05:19:32;33.57;;;15.70;;
38901;SDS011;24661;53.566;9.910;2023-04-15T05:21:58;33.77;;;16.97;;
38901;SDS011;24661;53.566;9.910;2023-04-15T05:24:24;33.77;;;17.17;;
38901;SDS011;24661;53.566;9.910;2023-04-15T05:26:49;32.67;;;17.80;;
38901;SDS011;24661;53.566;9.910;2023-04-15T05:29:15;43.50;;;18.67;;
38901;SDS011;24661;53.566;9.910;2023-04-15T05:31:41;38.53;;;18.00;;
38901;SDS011;24661;53.566;9.910;2023-04-15T05:34:07;36.10;;;19.47;;
38901;SDS011;24661;53.566;9.910;2023-04-15T05:36:32;47.07;;;19.87;;
38901;SDS011;24661;53.566;9.910;2023-04-15T05:38:58;44.00;;;21.70;;
38901;SDS011;24661;53.566;9.910;2023-04-15T05:41:24;36.47;;;18.63;;
38901;SDS011;24661;53.566;9.910;2023-04-15T05:43:50;33.30;;;18.10;;
38901;SDS011;24661;53.566;9.910;2023-04-15T05:46:15;42.40;;;20.13;;
38901;SDS011;24661;53.566;9.910;2023-04-15T05:48:41;44.63;;;20.23;;
38901;SDS011;24661;53.566;9.910;2023-04-15T05:51:07;39.43;;;20.43;;
38901;SDS011;24661;53.566;9.910;2023-04-15T05:53:32;44.10;;;21.47;;
38901;SDS011;24661;53.566;9.910;2023-04-15T05:55:58;45.10;;;21.63;;
38901;SDS011;24661;53.566;9.910;2023-04-15T05:58:24;46.30;;;21.80;;
38901;SDS011;24661;53.566;9.910;2023-04-15T06:00:49;39.83;;;20.97;;
38901;SDS011;24661;53.566;9.910;2023-04-15T06:03:15;43.60;;;22.37;;
38901;SDS011;24661;53.566;9.910;2023-04-15T06:05:40;41.43;;;19.90;;
38901;SDS011;24661;53.566;9.910;2023-04-15T06:08:06;45.87;;;22.67;;
38901;SDS011;24661;53.566;9.910;2023-04-15T06:10:33;46.40;;;22.67;;
38901;SDS011;24661;53.566;9.910;2023-04-15T06:13:01;46.13;;;23.87;;
38901;SDS011;24661;53.566;9.910;2023-04-15T06:15:27;41.30;;;21.97;;
38901;SDS011;24661;53.566;9.910;2023-04-15T06:17:53;38.63;;;20.37;;
38901;SDS011;24661;53.566;9.910;2023-04-15T06:20:19;46.73;;;22.47;;
38901;SDS011;24661;53.566;9.910;2023-04-15T06:22:44;40.20;;;22.80;;
38901;SDS011;24661;53.566;9.910;2023-04-15T06:25:10;38.03;;;22.00;;
38901;SDS011;24661;53.566;9.910;2023-04-15T06:27:36;44.00;;;23.63;;
38901;SDS011;24661;53.566;9.910;2023-04-15T06:30:02;47.57;;;23.20;;
38901;SDS011;24661;53.566;9.910;2023-04-15T06:32:28;48.90;;;24.63;;
38901;SDS011;24661;53.566;9.910;2023-04-15T06:34:53;45.57;;;22.37;;
38901;SDS011;24661;53.566;9.910;2023-04-15T06:37:19;53.20;;;24.83;;
38901;SDS011;24661;53.566;9.910;2023-04-15T06:39:44;51.90;;;24.80;;
38901;SDS011;24661;53.566;9.910;2023-04-15T06:42:11;49.03;;;24.33;;
38901;SDS011;24661;53.566;9.910;2023-04-15T06:44:36;58.50;;;26.50;;
38901;SDS011;24661;53.566;9.910;2023-04-15T06:47:02;45.70;;;23.03;;
38901;SDS011;24661;53.566;9.910;2023-04-15T06:49:28;43.50;;;24.27;;
38901;SDS011;24661;53.566;9.910;2023-04-15T06:51:53;47.87;;;24.20;;
38901;SDS011;24661;53.566;9.910;2023-04-15T06:54:19;41.77;;;22.90;;
38901;SDS011;24661;53.566;9.910;2023-04-15T06:56:45;44.47;;;25.83;;
38901;SDS011;24661;53.566;9.910;2023-04-15T06:59:11;42.37;;;22.27;;
38901;SDS011;24661;53.566;9.910;2023-04-15T07:01:38;45.80;;;24.33;;
38901;SDS011;24661;53.566;9.910;2023-04-15T07:04:05;53.23;;;26.20;;
38901;SDS011;24661;53.566;9.910;2023-04-15T07:06:30;48.13;;;25.33;;
38901;SDS011;24661;53.566;9.910;2023-04-15T07:08:56;59.00;;;29.27;;
38901;SDS011;24661;53.566;9.910;2023-04-15T07:11:25;51.07;;;25.40;;
38901;SDS011;24661;53.566;9.910;2023-04-15T07:13:50;51.13;;;26.77;;
38901;SDS011;24661;53.566;9.910;2023-04-15T07:16:16;60.23;;;30.03;;
38901;SDS011;24661;53.566;9.910;2023-04-15T07:18:42;49.93;;;27.57;;
38901;SDS011;24661;53.566;9.910;2023-04-15T07:21:08;56.87;;;28.07;;
38901;SDS011;24661;53.566;9.910;2023-04-15T07:23:33;53.67;;;27.27;;
38901;SDS011;24661;53.566;9.910;2023-04-15T07:25:59;52.47;;;27.30;;
38901;SDS011;24661;53.566;9.910;2023-04-15T07:28:25;60.03;;;29.70;;
38901;SDS011;24661;53.566;9.910;2023-04-15T07:30:51;66.87;;;30.80;;
38901;SDS011;24661;53.566;9.910;2023-04-15T07:33:17;49.93;;;26.97;;
38901;SDS011;24661;53.566;9.910;2023-04-15T07:35:42;61.33;;;28.43;;
38901;SDS011;24661;53.566;9.910;2023-04-15T07:38:09;52.50;;;27.00;;
38901;SDS011;24661;53.566;9.910;2023-04-15T07:40:36;46.10;;;24.57;;
38901;SDS011;24661;53.566;9.910;2023-04-15T07:43:03;56.77;;;29.37;;
38901;SDS011;24661;53.566;9.910;2023-04-15T07:45:29;57.83;;;31.03;;
38901;SDS011;24661;53.566;9.910;2023-04-15T07:47:55;58.83;;;31.70;;
38901;SDS011;24661;53.566;9.910;2023-04-15T07:50:20;60.90;;;29.57;;
38901;SDS011;24661;53.566;9.910;2023-04-15T07:52:47;54.20;;;28.97;;
38901;SDS011;24661;53.566;9.910;2023-04-15T07:55:13;51.37;;;28.47;;
38901;SDS011;24661;53.566;9.910;2023-04-15T07:57:41;56.47;;;29.93;;
38901;SDS011;24661;53.566;9.910;2023-04-15T08:00:07;46.87;;;28.60;;
38901;SDS011;24661;53.566;9.910;2023-04-15T08:02:33;69.67;;;34.27;;
38901;SDS011;24661;53.566;9.910;2023-04-15T08:04:59;57.50;;;30.47;;
38901;SDS011;24661;53.566;9.910;2023-04-15T08:07:27;56.20;;;28.70;;
38901;SDS011;24661;53.566;9.910;2023-04-15T08:09:52;54.80;;;27.80;;
38901;SDS011;24661;53.566;9.910;2023-04-15T08:12:20;54.57;;;30.77;;
38901;SDS011;24661;53.566;9.910;2023-04-15T08:14:46;56.37;;;29.37;;
38901;SDS011;24661;53.566;9.910;2023-04-15T08:17:12;56.30;;;30.87;;
38901;SDS011;24661;53.566;9.910;2023-04-15T08:19:37;56.43;;;29.70;;
38901;SDS011;24661;53.566;9.910;2023-04-15T08:22:04;55.97;;;28.40;;
38901;SDS011;24661;53.566;9.910;2023-04-15T08:24:31;57.27;;;29.17;;
38901;SDS011;24661;53.566;9.910;2023-04-15T08:26:58;57.10;;;31.53;;
38901;SDS011;24661;53.566;9.910;2023-04-15T08:29:24;50.03;;;29.40;;
38901;SDS011;24661;53.566;9.910;2023-04-15T08:31:49;56.57;;;31.20;;
38901;SDS011;24661;53.566;9.910;2023-04-15T08:34:16;52.93;;;29.60;;
38901;SDS011;24661;53.566;9.910;2023-04-15T08:36:42;61.93;;;32.73;;
38901;SDS011;24661;53.566;9.910;2023-04-15T08:39:07;54.57;;;30.57;;
38901;SDS011;24661;53.566;9.910;2023-04-15T08:41:44;48.43;;;29.00;;
38901;SDS011;24661;53.566;9.910;2023-04-15T08:44:12;61.17;;;33.07;;
38901;SDS011;24661;53.566;9.910;2023-04-15T08:46:38;54.23;;;28.10;;
38901;SDS011;24661;53.566;9.910;2023-04-15T08:49:07;56.77;;;29.97;;
38901;SDS011;24661;53.566;9.910;2023-04-15T08:51:37;57.90;;;30.97;;
38901;SDS011;24661;53.566;9.910;2023-04-15T08:54:09;52.43;;;29.57;;
38901;SDS011;24661;53.566;9.910;2023-04-15T08:56:37;48.70;;;29.17;;
38901;SDS011;24661;53.566;9.910;2023-04-15T08:59:03;48.30;;;29.00;;
38901;SDS011;24661;53.566;9.910;2023-04-15T09:01:29;59.87;;;31.97;;
38901;SDS011;24661;53.566;9.910;2023-04-15T09:03:56;54.97;;;30.43;;
38901;SDS011;24661;53.566;9.910;2023-04-15T09:06:23;52.73;;;29.67;;
38901;SDS011;24661;53.566;9.910;2023-04-15T09:08:50;45.37;;;29.13;;
38901;SDS011;24661;53.566;9.910;2023-04-15T09:11:16;53.53;;;29.57;;
38901;SDS011;24661;53.566;9.910;2023-04-15T09:13:43;51.07;;;28.60;;
38901;SDS011;24661;53.566;9.910;2023-04-15T09:16:08;45.87;;;28.40;;
38901;SDS011;24661;53.566;9.910;2023-04-15T09:18:35;44.90;;;28.10;;
38901;SDS011;24661;53.566;9.910;2023-04-15T09:21:04;49.03;;;28.37;;
38901;SDS011;24661;53.566;9.910;2023-04-15T09:23:35;51.47;;;33.57;;
38901;SDS011;24661;53.566;9.910;2023-04-15T09:26:01;50.37;;;28.70;;
38901;SDS011;24661;53.566;9.910;2023-04-15T09:28:27;42.30;;;26.67;;
38901;SDS011;24661;53.566;9.910;2023-04-15T09:30:56;42.53;;;26.17;;
38901;SDS011;24661;53.566;9.910;2023-04-15T09:33:22;49.17;;;28.80;;
38901;SDS011;24661;53.566;9.910;2023-04-15T09:36:03;46.03;;;28.93;;
38901;SDS011;24661;53.566;9.910;2023-04-15T09:38:30;43.53;;;27.33;;
38901;SDS011;24661;53.566;9.910;2023-04-15T09:40:56;45.27;;;27.53;;
38901;SDS011;24661;53.566;9.910;2023-04-15T09:43:44;45.57;;;29.97;;
38901;SDS011;24661;53.566;9.910;2023-04-15T09:46:10;44.20;;;27.20;;
38901;SDS011;24661;53.566;9.910;2023-04-15T09:48:36;37.67;;;24.77;;
38901;SDS011;24661;53.566;9.910;2023-04-15T09:51:01;44.17;;;26.60;;
38901;SDS011;24661;53.566;9.910;2023-04-15T09:53:27;48.37;;;29.13;;
38901;SDS011;24661;53.566;9.910;2023-04-15T09:55:55;47.27;;;27.87;;
38901;SDS011;24661;53.566;9.910;2023-04-15T09:58:26;43.23;;;25.33;;
38901;SDS011;24661;53.566;9.910;2023-04-15T10:00:54;45.00;;;26.27;;
38901;SDS011;24661;53.566;9.910;2023-04-15T10:03:22;46.03;;;30.63;;
38901;SDS011;24661;53.566;9.910;2023-04-15T10:05:50;45.63;;;27.13;;
38901;SDS011;24661;53.566;9.910;2023-04-15T10:08:20;35.30;;;24.00;;
38901;SDS011;24661;53.566;9.910;2023-04-15T10:10:56;41.33;;;23.90;;
38901;SDS011;24661;53.566;9.910;2023-04-15T10:13:24;38.27;;;25.30;;
38901;SDS011;24661;53.566;9.910;2023-04-15T10:15:55;38.20;;;24.53;;
38901;SDS011;24661;53.566;9.910;2023-04-15T10:18:26;38.67;;;25.30;;
38901;SDS011;24661;53.566;9.910;2023-04-15T10:20:53;37.50;;;23.97;;
38901;SDS011;24661;53.566;9.910;2023-04-15T10:23:22;37.97;;;25.20;;
38901;SDS011;24661;53.566;9.910;2023-04-15T10:25:50;35.27;;;23.70;;
38901;SDS011;24661;53.566;9.910;2023-04-15T10:28:18;38.00;;;23.63;;
38901;SDS011;24661;53.566;9.910;2023-04-15T10:30:46;30.77;;;21.60;;
38901;SDS011;24661;53.566;9.910;2023-04-15T10:33:13;34.80;;;23.17;;
38901;SDS011;24661;53.566;9.910;2023-04-15T10:35:41;35.43;;;23.23;;
38901;SDS011;24661;53.566;9.910;2023-04-15T10:43:45;33.73;;;22.30;;
38901;SDS011;24661;53.566;9.910;2023-04-15T10:46:22;33.10;;;22.20;;
38901;SDS011;24661;53.566;9.910;2023-04-15T10:48:50;31.63;;;21.13;;
38901;SDS011;24661;53.566;9.910;2023-04-15T10:51:30;30.63;;;21.17;;
38901;SDS011;24661;53.566;9.910;2023-04-15T10:54:00;28.70;;;21.60;;
38901;SDS011;24661;53.566;9.910;2023-04-15T10:56:29;29.17;;;19.63;;
38901;SDS011;24661;53.566;9.910;2023-04-15T10:58:57;30.23;;;21.17;;
38901;SDS011;24661;53.566;9.910;2023-04-15T11:01:48;25.83;;;19.13;;
38901;SDS011;24661;53.566;9.910;2023-04-15T11:10:02;27.00;;;18.50;;
38901;SDS011;24661;53.566;9.910;2023-04-15T11:12:53;26.00;;;18.97;;
38901;SDS011;24661;53.566;9.910;2023-04-15T11:15:35;27.23;;;20.23;;
38901;SDS011;24661;53.566;9.910;2023-04-15T11:20:43;21.17;;;15.10;;
38901;SDS011;24661;53.566;9.910;2023-04-15T11:23:14;22.80;;;14.87;;
38901;SDS011;24661;53.566;9.910;2023-04-15T11:25:42;20.53;;;13.67;;
38901;SDS011;24661;53.566;9.910;2023-04-15T11:28:10;18.47;;;13.13;;
38901;SDS011;24661;53.566;9.910;2023-04-15T11:30:37;15.73;;;11.83;;
38901;SDS011;24661;53.566;9.910;2023-04-15T11:33:07;16.87;;;12.43;;
38901;SDS011;24661;53.566;9.910;2023-04-15T11:35:34;16.87;;;10.77;;
38901;SDS011;24661;53.566;9.910;2023-04-15T11:38:04;15.90;;;11.20;;
38901;SDS011;24661;53.566;9.910;2023-04-15T11:40:36;19.93;;;10.57;;
38901;SDS011;24661;53.566;9.910;2023-04-15T11:43:12;13.87;;;9.97;;
38901;SDS011;24661;53.566;9.910;2023-04-15T11:45:56;12.47;;;9.17;;
38901;SDS011;24661;53.566;9.910;2023-04-15T11:48:40;16.23;;;9.80;;
38901;SDS011;24661;53.566;9.910;2023-04-15T11:51:10;12.27;;;8.93;;
38901;SDS011;24661;53.566;9.910;2023-04-15T11:53:44;12.73;;;10.53;;
38901;SDS011;24661;53.566;9.910;2023-04-15T11:56:18;13.80;;;10.87;;
38901;SDS011;24661;53.566;9.910;2023-04-15T11:58:53;11.50;;;9.00;;
38901;SDS011;24661;53.566;9.910;2023-04-15T12:01:33;13.70;;;10.13;;
38901;SDS011;24661;53.566;9.910;2023-04-15T12:04:01;11.40;;;8.90;;
38901;SDS011;24661;53.566;9.910;2023-04-15T12:06:38;12.33;;;9.20;;
38901;SDS011;24661;53.566;9.910;2023-04-15T12:14:18;9.87;;;7.67;;
38901;SDS011;24661;53.566;9.910;2023-04-15T12:19:26;10.37;;;7.83;;
38901;SDS011;24661;53.566;9.910;2023-04-15T12:21:59;13.00;;;9.67;;
38901;SDS011;24661;53.566;9.910;2023-04-15T12:24:33;13.13;;;9.73;;
38901;SDS011;24661;53.566;9.910;2023-04-15T12:27:00;16.33;;;10.83;;
38901;SDS011;24661;53.566;9.910;2023-04-15T12:29:28;11.80;;;9.20;;
38901;SDS011;24661;53.566;9.910;2023-04-15T12:31:58;17.30;;;10.07;;
38901;SDS011;24661;53.566;9.910;2023-04-15T12:34:35;14.30;;;9.53;;
38901;SDS011;24661;53.566;9.910;2023-04-15T12:37:04;11.23;;;9.13;;
38901;SDS011;24661;53.566;9.910;2023-04-15T12:39:35;10.53;;;8.30;;
38901;SDS011;24661;53.566;9.910;2023-04-15T12:42:02;9.17;;;7.57;;
38901;SDS011;24661;53.566;9.910;2023-04-15T12:44:31;12.97;;;9.53;;
38901;SDS011;24661;53.566;9.910;2023-04-15T12:57:04;13.27;;;8.73;;
38901;SDS011;24661;53.566;9.910;2023-04-15T12:59:33;12.27;;;9.13;;
38901;SDS011;24661;53.566;9.910;2023-04-15T13:01:59;11.13;;;8.47;;
38901;SDS011;24661;53.566;9.910;2023-04-15T13:04:27;11.83;;;8.67;;
38901;SDS011;24661;53.566;9.910;2023-04-15T13:06:57;11.33;;;8.83;;
38901;SDS011;24661;53.566;9.910;2023-04-15T13:09:23;10.83;;;8.07;;
38901;SDS011;24661;53.566;9.910;2023-04-15T13:11:49;11.37;;;9.17;;
38901;SDS011;24661;53.566;9.910;2023-04-15T13:14:15;11.60;;;8.67;;
38901;SDS011;24661;53.566;9.910;2023-04-15T13:16:40;12.47;;;8.87;;
38901;SDS011;24661;53.566;9.910;2023-04-15T13:19:06;12.03;;;8.93;;
38901;SDS011;24661;53.566;9.910;2023-04-15T13:21:32;14.60;;;9.07;;
38901;SDS011;24661;53.566;9.910;2023-04-15T13:23:59;12.50;;;10.20;;
38901;SDS011;24661;53.566;9.910;2023-04-15T13:26:25;12.20;;;8.73;;
38901;SDS011;24661;53.566;9.910;2023-04-15T13:28:55;13.90;;;8.87;;
38901;SDS011;24661;53.566;9.910;2023-04-15T13:31:24;14.17;;;9.57;;
38901;SDS011;24661;53.566;9.910;2023-04-15T13:33:53;11.67;;;8.33;;
38901;SDS011;24661;53.566;9.910;2023-04-15T13:36:20;11.30;;;8.53;;
38901;SDS011;24661;53.566;9.910;2023-04-15T13:38:45;10.20;;;8.13;;
38901;SDS011;24661;53.566;9.910;2023-04-15T13:41:22;10.00;;;7.70;;
38901;SDS011;24661;53.566;9.910;2023-04-15T13:43:48;10.87;;;8.30;;
38901;SDS011;24661;53.566;9.910;2023-04-15T13:46:14;13.20;;;8.73;;
38901;SDS011;24661;53.566;9.910;2023-04-15T13:48:50;11.57;;;7.83;;
38901;SDS011;24661;53.566;9.910;2023-04-15T13:51:19;11.97;;;8.10;;
38901;SDS011;24661;53.566;9.910;2023-04-15T13:53:46;9.97;;;8.63;;
38901;SDS011;24661;53.566;9.910;2023-04-15T13:56:11;11.53;;;8.67;;
38901;SDS011;24661;53.566;9.910;2023-04-15T13:58:39;12.27;;;8.77;;
38901;SDS011;24661;53.566;9.910;2023-04-15T14:01:11;8.13;;;7.33;;
38901;SDS011;24661;53.566;9.910;2023-04-15T14:03:43;9.27;;;7.67;;
38901;SDS011;24661;53.566;9.910;2023-04-15T14:06:09;9.70;;;8.27;;
38901;SDS011;24661;53.566;9.910;2023-04-15T14:08:40;12.03;;;8.13;;
38901;SDS011;24661;53.566;9.910;2023-04-15T14:11:06;11.17;;;7.40;;
38901;SDS011;24661;53.566;9.910;2023-04-15T14:13:36;10.47;;;7.43;;
38901;SDS011;24661;53.566;9.910;2023-04-15T14:16:08;11.37;;;8.40;;
38901;SDS011;24661;53.566;9.910;2023-04-15T14:18:47;8.97;;;7.10;;
38901;SDS011;24661;53.566;9.910;2023-04-15T14:21:29;10.30;;;8.07;;
38901;SDS011;24661;53.566;9.910;2023-04-15T14:24:04;10.10;;;7.00;;
38901;SDS011;24661;53.566;9.910;2023-04-15T14:26:36;8.80;;;6.60;;
38901;SDS011;24661;53.566;9.910;2023-04-15T14:29:04;8.57;;;7.00;;
38901;SDS011;24661;53.566;9.910;2023-04-15T14:31:40;10.27;;;7.50;;
38901;SDS011;24661;53.566;9.910;2023-04-15T14:34:10;8.43;;;7.50;;
38901;SDS011;24661;53.566;9.910;2023-04-15T14:36:36;8.23;;;7.17;;
38901;SDS011;24661;53.566;9.910;2023-04-15T14:39:08;9.73;;;6.87;;
38901;SDS011;24661;53.566;9.910;2023-04-15T14:41:43;12.70;;;6.77;;
38901;SDS011;24661;53.566;9.910;2023-04-15T14:44:20;9.13;;;7.37;;
38901;SDS011;24661;53.566;9.910;2023-04-15T14:46:56;12.43;;;8.10;;
38901;SDS011;24661;53.566;9.910;2023-04-15T14:49:33;10.87;;;8.17;;
38901;SDS011;24661;53.566;9.910;2023-04-15T14:52:03;11.80;;;7.10;;
38901;SDS011;24661;53.566;9.910;2023-04-15T14:54:33;11.37;;;7.10;;
38901;SDS011;24661;53.566;9.910;2023-04-15T14:57:00;8.67;;;6.77;;
38901;SDS011;24661;53.566;9.910;2023-04-15T14:59:37;9.00;;;7.03;;
38901;SDS011;24661;53.566;9.910;2023-04-15T15:02:10;9.97;;;7.67;;
38901;SDS011;24661;53.566;9.910;2023-04-15T15:04:52;7.80;;;6.77;;